Airfield :
LOGIN :

Register | Disclaimer

   EN    FR    IT 

 










Legend :    VFR   Marginal VFR   IFR   Intensive IFR   Very Intensive IFR
Visi :
Ceiling :
>= 8 km
>= 3000ft
5 to 8 km
1000 to 3000 ft
1500m to 5 km
500 to 1000 ft
800 to 1500m
200 to 500 ft
< 800m
< 200 ft
Symbols :   Thunderstorms  Fog  Heavy snow  Heavy precipitations  Wind > 20 kt
SIGMETs :     Misc.  Thunderstorms  Icing  Turbulence  Mountain Waves  Volcanic Ashes







- Airport Elevation : 32 ft
- IATA code : LKZ


EGUL - RAF Lakenheath

CURRENT METAR :
  • 201840Z AUTO 00000KT 9999 BKN010 OVC042 02/02 A2962 RMK AO2 CIG 010V042 BKN V FEW SLP034 $

EXPIRED METARs :
  • 201800Z AUTO 00000KT 9999 SCT010 BKN034 OVC044 02/02 A2960 RMK AO2 SLP027 $
  • 201747Z AUTO 00000KT 9999 OVC010 01/01 A2959 RMK AO2 SLP024 $
  • 201732Z AUTO 00000KT 9999 BKN009 BKN075 01/01 A2958 RMK AO2 CIG 009V075 BKN009 V SCT SLP020 $
  • 201656Z AUTO 00000KT 9999 SCT010 SCT120 02/02 A2955 RMK AO2 RAE08DZB08E26 SLP010 P0000 T00180018 $
  • 201651Z AUTO 00000KT 9999 SCT010 SCT110 02/02 A2955 RMK AO2 RAE08DZB08E26 SLP010 $
  • 201626Z AUTO 00000KT 9999 BKN009 BKN100 02/02 A2954 RMK AO2 RAE08DZB08E26 BKN009 V OVC SLP007 $

Expired Forecast.
No reported NOTAMs for that airfield.
1 SIGMET reported for the London FIR (EGTT) :
 
Severe turbulence
EGTT SIGMET 06 VALID 201500/201900 EGRR
EGTT LONDON FIR SEV TURB FCST S OF LINE N5000 W00200 - N5100 W00800 SFC/FL060 MOV S 15KT WKN=



MET'MAP, your aeronautical weather chart ! - Copyright ORBIFLY December 2007 - Disclaimer

ORBIFLY MET'MAP TEAM :

Programming & Development : Alexandra Zaïnal
Concept & Development : Baudouin d'Aumeries
Co-Development & Prog : Marc-Olivier Méhu
Technical & hardware support : Manuel Goepfert

Contact : metmap@orbifly.com




SOURCES & CREDITS :

   NOAA